createdAt,value
2022-12-12T00:00:35.397Z,2.53
2022-12-12T00:03:02.459Z,1.70
2022-12-12T00:05:29.129Z,2.05
2022-12-12T00:07:55.865Z,2.30
2022-12-12T00:10:22.834Z,2.33
2022-12-12T00:12:49.500Z,1.98
2022-12-12T00:15:16.410Z,1.45
2022-12-12T00:17:42.954Z,1.90
2022-12-12T00:20:09.670Z,3.90
2022-12-12T00:22:36.361Z,1.30
2022-12-12T00:25:02.962Z,1.23
2022-12-12T00:27:31.991Z,1.63
2022-12-12T00:29:58.705Z,1.73
2022-12-12T00:32:25.371Z,2.22
2022-12-12T00:34:52.215Z,1.70
2022-12-12T00:37:18.766Z,1.30
2022-12-12T00:39:45.865Z,1.25
2022-12-12T00:42:12.510Z,1.85
2022-12-12T00:44:39.519Z,0.90
2022-12-12T00:47:06.535Z,1.10
2022-12-12T00:49:33.482Z,1.00
2022-12-12T00:52:00.078Z,0.90
2022-12-12T00:54:26.796Z,1.00
2022-12-12T00:56:53.427Z,0.93
2022-12-12T00:59:20.070Z,1.10
2022-12-12T01:01:47.794Z,1.58
2022-12-12T01:04:15.423Z,1.10
2022-12-12T01:06:42.058Z,1.10
2022-12-12T01:09:08.820Z,1.20
2022-12-12T01:11:35.891Z,1.10
2022-12-12T01:14:21.300Z,1.35
2022-12-12T01:16:47.868Z,1.95
2022-12-12T01:19:14.849Z,2.80
2022-12-12T01:21:41.479Z,2.58
2022-12-12T01:24:08.153Z,3.97
2022-12-12T01:26:35.123Z,4.45
2022-12-12T01:29:01.871Z,6.40
2022-12-12T01:31:28.942Z,7.75
2022-12-12T01:33:55.594Z,7.85
2022-12-12T01:36:24.260Z,7.55
2022-12-12T01:38:54.697Z,7.88
2022-12-12T01:41:21.838Z,8.23
2022-12-12T01:43:48.941Z,8.13
2022-12-12T01:46:30.909Z,9.32
2022-12-12T01:49:23.999Z,9.43
2022-12-12T01:51:57.195Z,9.27
2022-12-12T01:54:35.041Z,8.48
2022-12-12T01:57:05.666Z,9.20
2022-12-12T01:59:33.729Z,7.93
2022-12-12T02:02:00.970Z,7.10
2022-12-12T02:04:28.554Z,6.78
2022-12-12T02:06:56.260Z,7.65
2022-12-12T02:09:25.798Z,8.25
2022-12-12T02:11:54.711Z,7.45
2022-12-12T02:14:29.163Z,7.22
2022-12-12T02:17:21.395Z,6.85
2022-12-12T02:20:41.387Z,7.45
2022-12-12T02:23:20.488Z,8.55
2022-12-12T02:26:03.755Z,7.20
2022-12-12T02:28:55.103Z,7.60
2022-12-12T02:31:30.641Z,7.15
2022-12-12T02:34:13.504Z,9.25
2022-12-12T02:37:11.002Z,7.25
2022-12-12T02:40:04.060Z,7.25
2022-12-12T02:42:42.050Z,7.22
2022-12-12T02:45:31.810Z,7.47
2022-12-12T02:48:05.627Z,8.15
2022-12-12T02:50:34.485Z,7.38
2022-12-12T02:53:01.365Z,7.10
2022-12-12T02:55:30.529Z,7.05
2022-12-12T02:57:59.947Z,7.38
2022-12-12T03:00:28.677Z,7.40
2022-12-12T03:03:22.823Z,6.75
2022-12-12T03:06:20.443Z,7.80
2022-12-12T03:08:59.384Z,7.30
2022-12-12T03:11:49.955Z,7.93
2022-12-12T03:14:39.408Z,7.82
2022-12-12T03:17:15.886Z,8.23
2022-12-12T03:19:55.243Z,9.90
2022-12-12T03:22:33.099Z,10.15
2022-12-12T03:25:44.282Z,11.20
2022-12-12T03:28:29.505Z,10.98
2022-12-12T03:30:58.102Z,11.05
2022-12-12T03:33:28.482Z,11.93
2022-12-12T03:36:08.825Z,11.50
2022-12-12T03:38:40.424Z,12.25
2022-12-12T03:41:13.379Z,14.32
2022-12-12T03:43:50.186Z,15.07
2022-12-12T03:46:21.311Z,15.52
2022-12-12T03:49:00.842Z,17.45
2022-12-12T03:51:32.951Z,18.67
2022-12-12T03:54:01.576Z,24.73
2022-12-12T03:56:39.305Z,23.70
2022-12-12T03:59:26.999Z,24.10
2022-12-12T04:02:00.538Z,23.77
2022-12-12T04:04:37.644Z,25.70
2022-12-12T04:07:13.987Z,24.55
2022-12-12T04:09:59.886Z,27.27
2022-12-12T04:12:59.169Z,29.02
2022-12-12T04:15:52.029Z,26.48
2022-12-12T04:18:49.501Z,32.03
2022-12-12T04:21:46.932Z,29.20
2022-12-12T04:24:36.126Z,28.95
2022-12-12T04:27:27.839Z,31.42
2022-12-12T04:30:05.055Z,30.23
2022-12-12T04:32:46.979Z,31.38
2022-12-12T04:35:23.531Z,30.05
2022-12-12T04:37:57.146Z,30.33
2022-12-12T04:40:29.177Z,28.88
2022-12-12T04:43:04.145Z,32.83
2022-12-12T04:45:35.218Z,27.85
2022-12-12T04:48:05.035Z,28.17
2022-12-12T04:50:34.845Z,31.48
2022-12-12T04:53:05.081Z,31.33
2022-12-12T04:55:34.603Z,31.90
2022-12-12T04:58:02.601Z,35.55
2022-12-12T05:00:36.556Z,32.38
2022-12-12T05:03:21.463Z,28.77
2022-12-12T05:05:54.989Z,31.45
2022-12-12T05:08:28.346Z,25.75
2022-12-12T05:10:59.545Z,25.85
2022-12-12T05:13:34.571Z,29.40
2022-12-12T05:16:08.249Z,35.30
2022-12-12T05:18:38.167Z,34.35
2022-12-12T05:21:05.011Z,35.97
2022-12-12T05:23:34.820Z,34.33
2022-12-12T05:26:10.306Z,37.58
2022-12-12T05:28:38.039Z,30.38
2022-12-12T05:31:04.898Z,26.95
2022-12-12T05:33:31.667Z,29.92
2022-12-12T05:35:58.358Z,28.35
2022-12-12T05:38:24.889Z,30.65
2022-12-12T05:40:52.052Z,28.02
2022-12-12T05:43:18.734Z,24.45
2022-12-12T05:45:45.409Z,30.70
2022-12-12T05:48:12.379Z,24.42
2022-12-12T05:50:38.992Z,27.77
2022-12-12T05:53:05.789Z,22.58
2022-12-12T05:55:32.518Z,31.48
2022-12-12T05:57:59.537Z,32.33
2022-12-12T06:00:26.232Z,32.03
2022-12-12T06:02:53.790Z,26.10
2022-12-12T06:05:20.799Z,34.13
2022-12-12T06:07:47.447Z,24.70
2022-12-12T06:10:14.579Z,29.00
2022-12-12T06:12:41.276Z,28.55
2022-12-12T06:15:08.210Z,37.53
2022-12-12T06:17:35.398Z,34.40
2022-12-12T06:20:02.288Z,30.45
2022-12-12T06:22:29.372Z,31.83
2022-12-12T06:24:56.340Z,22.40
2022-12-12T06:27:23.078Z,21.10
2022-12-12T06:29:49.598Z,23.52
2022-12-12T06:32:16.261Z,23.58
2022-12-12T06:34:43.185Z,19.73
2022-12-12T06:37:17.055Z,23.15
2022-12-12T06:39:44.519Z,28.15
2022-12-12T06:42:11.235Z,26.67
2022-12-12T06:44:38.450Z,23.10
2022-12-12T06:47:05.288Z,21.77
2022-12-12T06:49:31.867Z,25.10
2022-12-12T06:52:00.006Z,26.08
2022-12-12T06:54:26.937Z,25.80
2022-12-12T06:56:53.580Z,27.10
2022-12-12T06:59:20.181Z,23.25
2022-12-12T07:01:47.335Z,24.80
2022-12-12T07:04:15.821Z,25.80
2022-12-12T07:06:42.932Z,22.58
2022-12-12T07:09:10.339Z,26.02
2022-12-12T07:11:36.965Z,25.90
2022-12-12T07:14:05.836Z,24.88
2022-12-12T07:16:32.568Z,29.20
2022-12-12T07:18:59.682Z,22.52
2022-12-12T07:21:26.349Z,25.83
2022-12-12T07:23:53.056Z,26.70
2022-12-12T07:26:22.720Z,27.95
2022-12-12T07:28:50.870Z,31.15
2022-12-12T07:31:19.998Z,28.52
2022-12-12T07:33:47.732Z,30.40
2022-12-12T07:36:15.773Z,27.00
2022-12-12T07:38:42.538Z,25.58
2022-12-12T07:41:15.202Z,31.42
2022-12-12T07:43:44.773Z,31.50
2022-12-12T07:46:16.023Z,26.33
2022-12-12T07:48:43.226Z,24.02
2022-12-12T07:51:10.234Z,30.50
2022-12-12T07:53:36.982Z,27.45
2022-12-12T07:56:12.148Z,23.73
2022-12-12T07:58:39.879Z,19.52
2022-12-12T08:01:15.395Z,21.60
2022-12-12T08:03:44.231Z,23.45
2022-12-12T08:06:11.908Z,22.50
2022-12-12T08:08:38.988Z,21.38
2022-12-12T08:11:08.418Z,20.83
2022-12-12T08:13:36.782Z,18.10
2022-12-12T08:16:05.132Z,19.60
2022-12-12T08:18:32.446Z,19.60
2022-12-12T08:20:59.474Z,16.88
2022-12-12T08:23:26.345Z,13.35
2022-12-12T08:25:53.234Z,12.20
2022-12-12T08:28:19.965Z,13.75
2022-12-12T08:30:51.165Z,14.93
2022-12-12T08:33:18.621Z,15.80
2022-12-12T08:35:45.556Z,14.02
2022-12-12T08:38:12.376Z,16.85
2022-12-12T08:40:39.610Z,16.85
2022-12-12T08:43:06.249Z,17.30
2022-12-12T08:45:33.058Z,14.32
2022-12-12T08:47:59.691Z,12.75
2022-12-12T08:50:26.512Z,34.42
2022-12-12T08:52:53.328Z,28.35
2022-12-12T08:55:20.417Z,26.52
2022-12-12T08:57:47.293Z,46.60
2022-12-12T09:00:14.668Z,19.65
2022-12-12T09:02:41.652Z,22.02
2022-12-12T09:05:08.691Z,23.95
2022-12-12T09:07:36.405Z,21.52
2022-12-12T09:10:03.307Z,27.98
2022-12-12T09:12:29.866Z,23.60
2022-12-12T09:14:56.519Z,32.15
2022-12-12T09:17:23.160Z,20.52
2022-12-12T09:19:50.147Z,32.78
2022-12-12T09:22:18.862Z,24.23
2022-12-12T09:24:45.387Z,19.33
2022-12-12T09:27:12.067Z,24.52
2022-12-12T09:29:39.357Z,22.40
2022-12-12T09:32:06.800Z,22.55
2022-12-12T09:34:34.336Z,21.25
2022-12-12T09:37:01.435Z,22.48
2022-12-12T09:39:28.005Z,17.55
2022-12-12T09:41:54.930Z,22.65
2022-12-12T09:44:22.726Z,20.00
2022-12-12T09:46:53.385Z,24.60
2022-12-12T09:49:41.661Z,21.58
2022-12-12T09:52:15.011Z,24.08
2022-12-12T09:54:42.470Z,20.33
2022-12-12T09:57:18.803Z,13.98
2022-12-12T10:00:02.162Z,17.70
2022-12-12T10:02:35.068Z,19.83
2022-12-12T10:05:03.285Z,20.50
2022-12-12T10:07:29.905Z,16.48
2022-12-12T10:09:59.559Z,16.75
2022-12-12T10:12:27.299Z,20.52
2022-12-12T10:15:13.222Z,29.23
2022-12-12T10:17:47.815Z,21.77
2022-12-12T10:20:22.639Z,19.30
2022-12-12T10:22:56.875Z,25.67
2022-12-12T10:25:47.993Z,19.65
2022-12-12T10:28:17.935Z,22.85
2022-12-12T10:31:12.210Z,29.08
2022-12-12T10:34:05.227Z,27.48
2022-12-12T10:36:48.551Z,31.60
2022-12-12T10:39:36.005Z,32.80
2022-12-12T10:42:15.400Z,35.35
2022-12-12T10:44:51.069Z,38.00
2022-12-12T10:47:18.285Z,37.17
2022-12-12T10:49:44.968Z,34.95
2022-12-12T10:52:18.506Z,32.75
2022-12-12T10:54:49.773Z,44.80
2022-12-12T10:57:25.657Z,39.00
2022-12-12T10:59:57.976Z,37.25
2022-12-12T11:02:36.945Z,38.33
2022-12-12T11:05:26.654Z,38.08
2022-12-12T11:08:05.457Z,41.83
2022-12-12T11:10:37.641Z,38.30
2022-12-12T11:13:16.561Z,40.75
2022-12-12T11:15:46.285Z,42.58
2022-12-12T11:18:16.517Z,44.80
2022-12-12T11:20:48.992Z,45.05
2022-12-12T11:23:21.259Z,47.35
2022-12-12T11:26:05.818Z,41.72
2022-12-12T11:28:36.832Z,43.75
2022-12-12T11:31:08.848Z,41.20
2022-12-12T11:33:43.281Z,44.95
2022-12-12T11:36:19.155Z,46.03
2022-12-12T11:38:52.039Z,46.85
2022-12-12T11:41:19.317Z,44.47
2022-12-12T11:43:48.978Z,43.65
2022-12-12T11:46:16.036Z,42.85
2022-12-12T11:48:51.873Z,45.17
2022-12-12T11:51:33.788Z,43.30
2022-12-12T11:54:02.777Z,38.47
2022-12-12T11:56:37.269Z,45.05
2022-12-12T11:59:27.413Z,42.80
2022-12-12T12:02:31.793Z,45.40
2022-12-12T12:05:27.289Z,44.38
2022-12-12T12:08:32.534Z,39.53
2022-12-12T12:11:43.374Z,42.17
2022-12-12T12:14:12.843Z,43.90
2022-12-12T12:16:44.561Z,42.97
2022-12-12T12:19:22.272Z,38.03
2022-12-12T12:22:04.626Z,42.97
2022-12-12T12:24:52.891Z,43.85
2022-12-12T12:27:33.197Z,48.85
2022-12-12T12:30:12.279Z,42.13
2022-12-12T12:32:48.001Z,45.58
2022-12-12T12:35:42.575Z,45.03
2022-12-12T12:38:34.132Z,45.80
2022-12-12T12:41:24.149Z,48.65
2022-12-12T12:44:17.013Z,44.05
2022-12-12T12:47:00.141Z,46.40
2022-12-12T12:49:33.233Z,38.85
2022-12-12T12:52:06.387Z,47.45
2022-12-12T12:54:47.319Z,44.22
2022-12-12T12:57:22.103Z,43.97
2022-12-12T12:59:53.704Z,46.47
2022-12-12T13:02:37.061Z,46.60
2022-12-12T13:05:14.978Z,41.40
2022-12-12T13:07:57.226Z,45.28
2022-12-12T13:10:29.359Z,46.47
2022-12-12T13:13:12.492Z,40.92
2022-12-12T13:15:47.107Z,45.35
2022-12-12T13:18:16.732Z,41.60
2022-12-12T13:21:00.813Z,36.38
2022-12-12T13:23:56.729Z,37.22
2022-12-12T13:26:37.954Z,41.70
2022-12-12T13:29:23.885Z,36.40
2022-12-12T13:32:17.179Z,43.85
2022-12-12T13:34:52.738Z,34.20
2022-12-12T13:37:22.232Z,31.58
2022-12-12T13:39:59.879Z,36.35
2022-12-12T13:42:27.064Z,94.80
2022-12-12T13:44:53.753Z,37.72
2022-12-12T13:47:23.765Z,33.70
2022-12-12T13:50:01.523Z,43.47
2022-12-12T13:52:41.027Z,39.95
2022-12-12T13:55:14.107Z,42.97
2022-12-12T13:57:59.302Z,44.33
2022-12-12T14:00:46.643Z,61.60
2022-12-12T14:03:13.219Z,49.90
2022-12-12T14:05:51.374Z,48.15
2022-12-12T14:08:18.520Z,48.70
2022-12-12T14:11:05.095Z,45.58
2022-12-12T14:13:41.444Z,39.13
2022-12-12T14:16:20.836Z,31.73
2022-12-12T14:18:50.307Z,29.38
2022-12-12T14:21:22.169Z,31.77
2022-12-12T14:23:52.042Z,31.35
2022-12-12T14:26:27.905Z,33.08
2022-12-12T14:29:16.398Z,30.83
2022-12-12T14:31:51.520Z,35.60
2022-12-12T14:34:52.136Z,35.33
2022-12-12T14:37:56.719Z,37.67
2022-12-12T14:40:35.041Z,37.25
2022-12-12T14:43:19.136Z,31.55
2022-12-12T14:46:00.865Z,34.47
2022-12-12T14:48:37.684Z,31.55
2022-12-12T14:51:29.504Z,33.70
2022-12-12T14:53:59.244Z,32.80
2022-12-12T14:56:41.021Z,34.55
2022-12-12T14:59:07.647Z,32.25
2022-12-12T15:01:36.434Z,35.97
2022-12-12T15:04:07.006Z,34.15
2022-12-12T15:06:39.403Z,29.17
2022-12-12T15:09:39.012Z,28.80
2022-12-12T15:12:11.649Z,28.17
2022-12-12T15:14:57.632Z,32.47
2022-12-12T15:17:26.683Z,26.50
2022-12-12T15:20:08.212Z,27.13
2022-12-12T15:22:48.623Z,23.60
2022-12-12T15:25:23.945Z,19.15
2022-12-12T15:27:56.073Z,25.27
2022-12-12T15:30:39.621Z,27.52
2022-12-12T15:33:14.728Z,28.02
2022-12-12T15:35:57.911Z,32.95
2022-12-12T15:38:28.457Z,27.02
2022-12-12T15:40:58.276Z,23.15
2022-12-12T15:43:27.899Z,21.30
2022-12-12T15:46:07.048Z,20.52
2022-12-12T15:48:34.025Z,18.90
2022-12-12T15:51:06.715Z,14.40
2022-12-12T15:53:36.783Z,14.25
2022-12-12T15:56:06.488Z,13.52
2022-12-12T15:58:45.366Z,9.43
2022-12-12T16:01:21.480Z,6.80
2022-12-12T16:04:00.854Z,9.98
2022-12-12T16:06:27.608Z,10.60
2022-12-12T16:09:07.767Z,6.50
2022-12-12T16:11:50.634Z,7.95
2022-12-12T16:14:40.823Z,11.07
2022-12-12T16:17:12.015Z,11.63
2022-12-12T16:19:47.534Z,11.25
2022-12-12T16:22:20.919Z,9.15
2022-12-12T16:24:51.804Z,12.38
2022-12-12T16:27:22.047Z,10.32
2022-12-12T16:29:49.105Z,12.30
2022-12-12T16:32:19.713Z,13.52
2022-12-12T16:34:46.821Z,16.55
2022-12-12T16:37:16.430Z,12.35
2022-12-12T16:39:44.813Z,12.80
2022-12-12T16:42:16.575Z,12.45
2022-12-12T16:44:44.131Z,10.05
2022-12-12T16:47:18.140Z,12.18
2022-12-12T16:49:45.533Z,16.33
2022-12-12T16:52:14.493Z,14.18
2022-12-12T16:54:41.544Z,12.02
2022-12-12T16:57:08.670Z,29.45
2022-12-12T16:59:36.102Z,10.05
2022-12-12T17:02:03.666Z,8.85
2022-12-12T17:04:30.659Z,10.93
2022-12-12T17:06:59.906Z,11.65
2022-12-12T17:09:30.121Z,16.65
2022-12-12T17:11:57.027Z,18.83
2022-12-12T17:14:25.205Z,15.30
2022-12-12T17:16:53.801Z,10.90
2022-12-12T17:19:20.724Z,13.98
2022-12-12T17:21:47.764Z,4.40
2022-12-12T17:24:14.794Z,6.03
2022-12-12T17:26:41.514Z,3.63
2022-12-12T17:29:09.552Z,2.35
2022-12-12T17:31:37.092Z,3.25
2022-12-12T17:34:04.254Z,2.58
2022-12-12T17:36:30.962Z,2.17
2022-12-12T17:38:59.038Z,2.88
2022-12-12T17:41:26.726Z,3.30
2022-12-12T17:43:55.841Z,2.55
2022-12-12T17:46:23.733Z,2.88
2022-12-12T17:48:50.600Z,2.38
2022-12-12T17:51:20.292Z,2.60
2022-12-12T17:53:47.441Z,1.77
2022-12-12T17:56:16.603Z,3.03
2022-12-12T17:58:45.757Z,6.15
2022-12-12T18:01:21.232Z,2.15
2022-12-12T18:03:48.665Z,3.60
2022-12-12T18:06:16.452Z,2.83
2022-12-12T18:08:44.674Z,3.25
2022-12-12T18:11:17.842Z,2.58
2022-12-12T18:13:48.679Z,3.20
2022-12-12T18:16:15.828Z,5.97
2022-12-12T18:18:42.950Z,3.08
2022-12-12T18:21:23.588Z,4.07
2022-12-12T18:24:02.581Z,4.28
2022-12-12T18:26:29.675Z,4.13
2022-12-12T18:29:01.955Z,5.07
2022-12-12T18:31:29.892Z,2.42
2022-12-12T18:33:57.537Z,4.97
2022-12-12T18:36:27.765Z,3.03
2022-12-12T18:38:59.672Z,5.53
2022-12-12T18:41:28.238Z,5.00
2022-12-12T18:43:55.484Z,5.53
2022-12-12T18:46:24.909Z,7.55
2022-12-12T18:48:51.639Z,7.70
2022-12-12T18:51:23.206Z,4.88
2022-12-12T18:53:51.402Z,2.42
2022-12-12T18:56:30.066Z,1.05
2022-12-12T18:58:58.768Z,1.10
2022-12-12T19:01:28.765Z,5.57
2022-12-12T19:03:57.606Z,5.43
2022-12-12T19:06:32.010Z,11.57
2022-12-12T19:08:58.972Z,2.40
2022-12-12T19:11:25.605Z,7.20
2022-12-12T19:13:52.615Z,24.25
2022-12-12T19:16:21.104Z,7.85
2022-12-12T19:18:48.159Z,19.63
2022-12-12T19:21:17.957Z,17.02
2022-12-12T19:23:45.410Z,11.60
2022-12-12T19:26:17.236Z,18.25
2022-12-12T19:28:44.531Z,15.98
2022-12-12T19:31:16.314Z,23.15
2022-12-12T19:33:44.720Z,9.15
2022-12-12T19:36:15.251Z,19.50
2022-12-12T19:38:42.803Z,10.10
2022-12-12T19:41:11.372Z,23.08
2022-12-12T19:43:38.174Z,5.95
2022-12-12T19:46:09.280Z,20.20
2022-12-12T19:48:37.390Z,23.55
2022-12-12T19:51:13.006Z,17.13
2022-12-12T19:53:42.214Z,14.10
2022-12-12T19:56:12.668Z,14.60
2022-12-12T19:58:40.227Z,13.68
2022-12-12T20:01:13.451Z,17.85
2022-12-12T20:03:40.626Z,16.17
2022-12-12T20:06:10.518Z,4.35
2022-12-12T20:08:38.105Z,3.47
2022-12-12T20:11:11.446Z,6.03
2022-12-12T20:13:38.526Z,15.15
2022-12-12T20:16:14.019Z,15.15
2022-12-12T20:18:41.637Z,25.17
2022-12-12T20:21:16.838Z,13.85
2022-12-12T20:23:55.244Z,11.98
2022-12-12T20:26:25.204Z,8.65
2022-12-12T20:28:53.713Z,8.73
2022-12-12T20:31:25.892Z,6.93
2022-12-12T20:33:55.265Z,7.32
2022-12-12T20:36:27.043Z,4.10
2022-12-12T20:38:55.789Z,3.47
2022-12-12T20:41:34.508Z,3.75
2022-12-12T20:44:01.573Z,4.63
2022-12-12T20:46:30.783Z,7.80
2022-12-12T20:48:59.529Z,4.72
2022-12-12T20:51:54.752Z,5.45
2022-12-12T20:54:20.037Z,5.70
2022-12-12T20:56:46.878Z,7.22
2022-12-12T20:59:14.595Z,8.40
2022-12-12T21:01:41.760Z,4.72
2022-12-12T21:04:09.614Z,8.90
2022-12-12T21:06:43.213Z,6.95
2022-12-12T21:09:11.768Z,10.75
2022-12-12T21:11:39.636Z,6.90
2022-12-12T21:14:07.763Z,7.60
2022-12-12T21:16:37.706Z,7.60
2022-12-12T21:19:07.543Z,9.77
2022-12-12T21:21:34.755Z,5.25
2022-12-12T21:24:01.948Z,5.80
2022-12-12T21:26:30.877Z,5.07
2022-12-12T21:28:58.949Z,5.20
2022-12-12T21:31:29.029Z,7.55
2022-12-12T21:33:56.335Z,3.65
2022-12-12T21:36:24.201Z,6.82
2022-12-12T21:38:52.659Z,5.57
2022-12-12T21:41:21.548Z,6.47
2022-12-12T21:43:49.132Z,4.40
2022-12-12T21:46:22.894Z,4.75
2022-12-12T21:49:09.217Z,6.00
2022-12-12T21:51:36.187Z,6.15
2022-12-12T21:54:04.297Z,5.50
2022-12-12T21:56:31.155Z,4.97
2022-12-12T21:58:58.566Z,6.88
2022-12-12T22:01:25.438Z,6.13
2022-12-12T22:03:52.138Z,7.25
2022-12-12T22:06:30.659Z,7.22
2022-12-12T22:08:59.888Z,8.32
2022-12-12T22:11:40.875Z,7.72
2022-12-12T22:14:17.021Z,7.75
2022-12-12T22:16:43.639Z,7.50
2022-12-12T22:19:14.954Z,5.10
2022-12-12T22:21:43.911Z,5.28
2022-12-12T22:24:10.633Z,6.45
2022-12-12T22:26:39.903Z,5.75
2022-12-12T22:29:17.790Z,4.68
2022-12-12T22:31:45.453Z,3.60
2022-12-12T22:34:21.570Z,2.90
2022-12-12T22:36:48.512Z,3.00
2022-12-12T22:39:27.081Z,2.85
2022-12-12T22:41:55.052Z,3.22
2022-12-12T22:44:23.682Z,3.70
2022-12-12T22:46:52.195Z,3.55
2022-12-12T22:49:22.514Z,4.65
2022-12-12T22:51:49.774Z,7.50
2022-12-12T22:54:17.460Z,4.10
2022-12-12T22:56:44.911Z,5.45
2022-12-12T22:59:15.525Z,3.90
2022-12-12T23:01:42.636Z,4.00
2022-12-12T23:04:13.923Z,4.15
2022-12-12T23:06:42.345Z,4.90
2022-12-12T23:09:17.621Z,4.72
2022-12-12T23:11:44.889Z,3.65
2022-12-12T23:14:14.994Z,3.55
2022-12-12T23:16:42.462Z,3.60
2022-12-12T23:19:10.208Z,3.28
2022-12-12T23:21:37.845Z,4.13
2022-12-12T23:24:06.423Z,2.17
2022-12-12T23:26:35.262Z,4.40
2022-12-12T23:29:02.202Z,4.72
2022-12-12T23:31:32.217Z,3.22
2022-12-12T23:34:01.963Z,3.53
2022-12-12T23:36:29.496Z,3.85
2022-12-12T23:39:01.407Z,3.50
2022-12-12T23:41:28.920Z,5.40
2022-12-12T23:43:56.354Z,4.90
2022-12-12T23:46:29.690Z,3.95
2022-12-12T23:49:18.154Z,5.38
2022-12-12T23:51:50.699Z,3.70
2022-12-12T23:54:20.373Z,3.88
2022-12-12T23:56:48.563Z,4.17
2022-12-12T23:59:18.289Z,4.65
